.
WxDataArchive / Data Records for 2011-05-21
2011-05-20 May 2011 2011-05-22

Data Records for Saturday, 21 May 2011

Time	Temp	Chill	HIndex	Humid	Dewpt	 Wind 	HiWind	WindDir	Rain 	Barom 
-----	----	-----	------	-----	-----	------	------	-------	-----	----- 
00:00	61.8	61.8	61.8	88	58.2	0	0	---	0.00	30.032 
00:05	61.6	61.6	61.6	89	58.3	0	0	---	0.00	30.032 
00:10	61.5	61.5	61.5	89	58.2	0	0	---	0.00	30.032 
00:15	61.3	61.3	61.3	89	58.0	0	0	---	0.00	30.024 
00:20	61.2	61.2	61.2	89	57.9	0	0	---	0.00	30.024 
00:25	61.0	61.0	61.0	90	58.0	0	0	---	0.00	30.024 
00:30	60.9	60.9	60.9	90	57.9	0	0	---	0.00	30.022 
00:35	60.7	60.7	60.7	91	58.1	0	0	---	0.00	30.022 
00:40	60.7	60.7	60.7	91	58.1	0	0	---	0.00	30.022 
00:45	60.5	60.5	60.5	91	57.9	0	0	---	0.00	30.023 
00:50	60.4	60.4	60.4	91	57.8	0	0	---	0.00	30.023 
00:55	60.4	60.4	60.4	91	57.8	0	0	---	0.00	30.023 
01:00	60.2	60.2	60.2	92	57.9	0	0	---	0.00	30.022 
01:05	60.1	60.1	60.1	92	57.8	0	0	---	0.00	30.022 
01:10	59.9	59.9	59.9	92	57.6	0	0	---	0.00	30.022 
01:15	59.9	59.9	59.9	92	57.6	0	0	---	0.00	30.012 
01:20	59.8	59.8	59.8	92	57.5	0	0	---	0.00	30.012 
01:25	59.6	59.6	59.6	92	57.3	0	0	---	0.00	30.012 
01:30	59.5	59.5	59.5	92	57.2	0	0	---	0.00	30.005 
01:35	59.3	59.3	59.3	92	57.0	0	0	---	0.00	30.005 
01:40	59.3	59.3	59.3	92	57.0	0	0	---	0.00	30.005 
01:45	59.2	59.2	59.2	92	56.9	0	0	---	0.00	30.003 
01:50	59.0	59.0	59.0	92	56.7	0	1	112	0.00	30.003 
01:55	59.0	59.0	59.0	93	57.0	0	0	---	0.00	30.003 
02:00	59.2	59.2	59.2	93	57.2	0	1	112	0.00	30.006 
02:05	59.5	59.5	59.5	94	57.8	0	1	112	0.00	30.006 
02:10	59.6	59.6	59.6	93	57.6	0	0	---	0.00	30.006 
02:15	59.8	59.8	59.8	94	58.1	0	1	112	0.00	30.003 
02:20	59.9	59.9	59.9	93	57.9	1	3	112	0.00	30.003 
02:25	60.1	60.1	60.1	93	58.1	0	2	112	0.00	30.003 
02:30	60.1	60.1	60.1	93	58.1	0	2	112	0.00	29.992 
02:35	60.2	60.2	60.2	92	57.9	0	2	112	0.00	29.992 
02:40	60.2	60.2	60.2	92	57.9	0	2	112	0.00	29.992 
02:45	60.2	60.2	60.2	92	57.9	1	3	112	0.00	29.985 
02:50	60.2	60.2	60.2	92	57.9	0	3	112	0.00	29.985 
02:55	60.1	60.1	60.1	92	57.8	0	1	112	0.00	29.985 
03:00	60.1	60.1	60.1	92	57.8	0	2	112	0.00	29.982 
03:05	60.1	60.1	60.1	92	57.8	0	3	112	0.00	29.982 
03:10	60.1	60.1	60.1	92	57.8	1	2	112	0.00	29.982 
03:15	59.9	59.9	59.9	92	57.6	0	1	112	0.00	29.987 
03:20	59.9	59.9	59.9	92	57.6	0	0	---	0.00	29.987 
03:25	59.9	59.9	59.9	92	57.6	0	0	---	0.00	29.987 
03:30	59.8	59.8	59.8	92	57.5	0	0	---	0.00	29.994 
03:35	59.6	59.6	59.6	92	57.3	0	0	---	0.00	29.994 
03:40	59.6	59.6	59.6	92	57.3	0	1	112	0.00	29.994 
03:45	59.8	59.8	59.8	92	57.5	0	1	112	0.00	29.992 
03:50	59.8	59.8	59.8	92	57.5	0	2	112	0.00	29.992 
03:55	59.6	59.6	59.6	92	57.3	0	1	112	0.00	29.992 
04:00	59.6	59.6	59.6	92	57.3	0	2	112	0.00	29.992 
04:05	59.6	59.6	59.6	92	57.3	0	0	---	0.00	29.992 
04:10	59.5	59.5	59.5	92	57.2	0	1	112	0.00	29.992 
04:15	59.3	59.3	59.3	92	57.0	0	2	112	0.00	29.992 
04:20	59.3	59.3	59.3	92	57.0	0	1	112	0.00	29.992 
04:25	59.2	59.2	59.2	92	56.9	0	1	112	0.00	29.992 
04:30	59.2	59.2	59.2	92	56.9	0	3	112	0.00	29.992 
04:35	59.2	59.2	59.2	91	56.6	0	1	112	0.00	29.992 
04:40	59.2	59.2	59.2	91	56.6	0	1	112	0.00	29.992 
04:45	59.0	59.0	59.0	91	56.4	0	0	---	0.00	30.000 
04:50	58.9	58.9	58.9	91	56.3	0	0	---	0.00	30.000 
04:55	58.9	58.9	58.9	91	56.3	0	0	---	0.00	30.000 
05:00	58.6	58.6	58.6	91	56.0	0	0	---	0.00	30.004 
05:05	58.4	58.4	58.4	91	55.8	0	0	---	0.00	30.004 
05:10	58.1	58.1	58.1	91	55.5	0	0	---	0.00	30.004 
05:15	57.8	57.8	57.8	91	55.2	0	0	---	0.00	30.011 
05:20	57.6	57.6	57.6	91	55.0	0	0	---	0.00	30.011 
05:25	57.2	57.2	57.2	92	54.9	0	1	112	0.00	30.011 
05:30	57.0	57.0	57.0	92	54.7	0	0	---	0.00	30.010 
05:35	56.9	56.9	56.9	92	54.6	0	0	---	0.00	30.010 
05:40	56.7	56.7	56.7	92	54.4	0	0	---	0.00	30.010 
05:45	56.6	56.6	56.6	92	54.3	0	0	---	0.00	30.009 
05:50	56.5	56.5	56.5	92	54.2	0	0	---	0.00	30.009 
05:55	56.3	56.3	56.3	92	54.0	0	0	---	0.00	30.009 
06:00	56.2	56.2	56.2	93	54.2	0	0	---	0.00	30.012 
06:05	56.0	56.0	56.0	93	54.0	0	0	---	0.00	30.012 
06:10	56.0	56.0	56.0	93	54.0	0	0	---	0.00	30.012 
06:15	55.9	55.9	55.9	93	53.9	0	0	---	0.00	30.011 
06:20	55.9	55.9	55.9	93	53.9	0	0	---	0.00	30.011 
06:25	55.9	55.9	55.9	94	54.2	0	0	---	0.00	30.011 
06:30	55.9	55.9	55.9	94	54.2	0	0	---	0.00	30.026 
06:35	55.9	55.9	55.9	94	54.2	0	1	112	0.00	30.026 
06:40	56.0	56.0	56.0	94	54.3	0	0	---	0.00	30.026 
06:45	56.0	56.0	56.0	94	54.3	0	0	---	0.00	30.024 
06:50	56.0	56.0	56.0	94	54.3	0	0	---	0.00	30.024 
06:55	56.0	56.0	56.0	94	54.3	0	0	---	0.00	30.024 
07:00	56.3	56.3	56.3	95	54.9	0	0	---	0.00	30.025 
07:05	56.9	56.9	56.9	95	55.5	0	2	112	0.00	30.025 
07:10	57.3	57.3	57.3	95	55.9	1	3	112	0.00	30.025 
07:15	57.6	57.6	57.6	95	56.2	0	1	112	0.00	30.023 
07:20	58.0	58.0	58.0	95	56.6	0	1	112	0.00	30.023 
07:25	58.4	58.4	58.4	94	56.7	0	1	112	0.00	30.023 
07:30	58.9	58.9	58.9	94	57.2	0	0	---	0.00	30.024 
07:35	59.2	59.2	59.2	93	57.2	0	0	---	0.00	30.024 
07:40	59.5	59.5	59.5	93	57.5	0	0	---	0.00	30.024 
07:45	59.9	59.9	59.9	92	57.6	0	0	---	0.00	30.027 
07:50	60.5	60.5	60.5	90	57.5	0	0	---	0.00	30.027 
07:55	60.9	60.9	60.9	89	57.6	0	2	112	0.00	30.027 
08:00	61.2	61.2	61.2	88	57.6	0	2	112	0.00	30.022 
08:05	61.5	61.5	61.5	87	57.6	0	4	112	0.00	30.022 
08:10	62.0	62.0	62.0	87	58.1	0	1	112	0.00	30.022 
08:15	62.4	62.4	62.4	84	57.5	1	4	112	0.00	30.024 
08:20	62.9	62.9	62.9	84	58.0	1	3	112	0.00	30.024 
08:25	63.4	63.4	63.4	82	57.8	1	3	112	0.00	30.024 
08:30	63.7	63.7	63.7	82	58.1	1	3	112	0.00	30.014 
08:35	64.0	64.0	64.0	81	58.0	1	4	112	0.00	30.014 
08:40	64.5	64.5	64.5	80	58.2	1	3	112	0.00	30.014 
08:45	65.3	65.3	65.3	79	58.6	1	3	112	0.00	30.018 
08:50	66.0	66.0	66.0	78	58.9	1	4	135	0.00	30.018 
08:55	66.8	66.8	66.8	76	59.0	0	1	112	0.00	30.018 
09:00	67.6	67.6	67.6	74	59.0	1	3	90	0.00	30.019 
09:05	68.4	68.4	68.4	73	59.4	0	3	90	0.00	30.019 
09:10	69.1	69.1	69.1	72	59.7	1	4	135	0.00	30.019 
09:15	69.4	69.4	69.4	71	59.6	1	3	112	0.00	30.013 
09:20	69.8	69.8	69.8	70	59.6	0	3	135	0.00	30.013 
09:25	69.9	69.9	69.9	70	59.7	2	4	90	0.00	30.013 
09:30	69.8	69.8	69.8	71	60.0	2	4	112	0.00	30.013 
09:35	70.3	70.3	70.3	70	60.0	1	3	112	0.00	30.013 
09:40	70.9	70.9	70.9	68	59.8	1	5	112	0.00	30.013 
09:45	71.1	71.1	71.1	69	60.4	1	5	90	0.00	30.012 
09:50	71.3	71.3	71.3	67	59.8	1	5	90	0.00	30.012 
09:55	71.5	71.5	71.5	67	60.0	1	4	90	0.00	30.012 
10:00	71.8	71.8	71.8	67	60.2	1	3	90	0.00	30.004 
10:05	72.3	72.3	72.3	65	59.9	1	3	90	0.00	30.004 
10:10	73.0	73.0	73.0	65	60.5	1	3	112	0.00	30.004 
10:15	73.5	73.5	73.5	66	61.4	1	3	112	0.00	30.003 
10:20	73.5	73.5	73.5	64	60.6	2	7	112	0.00	30.003 
10:25	73.3	73.3	73.3	64	60.4	1	3	112	0.00	30.003 
10:30	73.7	73.7	73.7	64	60.7	1	5	90	0.00	29.991 
10:35	73.9	73.9	73.9	62	60.0	2	4	90	0.00	29.991 
10:40	73.9	73.9	73.9	62	60.0	1	4	90	0.00	29.991 
10:45	73.9	73.9	73.9	62	60.0	1	6	68	0.00	29.988 
10:50	73.9	73.9	73.9	62	60.0	2	4	68	0.00	29.988 
10:55	74.0	74.0	74.0	61	59.7	1	2	112	0.00	29.988 
11:00	74.2	74.2	74.2	61	59.9	1	4	112	0.00	29.978 
11:05	74.7	74.7	74.7	58	58.9	1	4	112	0.00	29.978 
11:10	75.1	75.1	77.5	58	59.3	1	4	112	0.00	29.978 
11:15	75.1	75.1	77.5	59	59.8	2	6	90	0.00	29.977 
11:20	74.7	74.7	74.7	59	59.4	2	7	90	0.00	29.977 
11:25	75.1	75.1	77.4	60	60.2	1	4	112	0.00	29.977 
11:30	75.6	75.6	77.8	57	59.3	2	6	112	0.00	29.971 
11:35	75.6	75.6	77.8	58	59.8	2	5	90	0.00	29.971 
11:40	75.6	75.6	77.8	57	59.3	3	5	90	0.00	29.971 
11:45	75.8	75.8	77.9	56	59.0	2	6	112	0.00	29.968 
11:50	76.1	76.1	78.1	55	58.7	2	6	112	0.00	29.968 
11:55	75.8	75.8	77.9	57	59.5	3	6	90	0.00	29.968 
12:00	75.8	75.8	77.9	57	59.5	2	4	112	0.00	29.970 
12:05	76.3	76.3	78.2	53	57.9	2	5	90	0.00	29.970 
12:10	77.0	77.0	78.7	53	58.5	1	4	112	0.00	29.970 
12:15	77.7	77.7	79.1	52	58.6	2	6	112	0.00	29.972 
12:20	77.9	77.9	79.3	52	58.8	2	6	112	0.00	29.972 
12:25	77.7	77.7	79.0	50	57.6	2	5	112	0.00	29.972 
12:30	77.9	77.9	79.1	49	57.2	1	4	112	0.00	29.967 
12:35	78.5	78.5	79.5	49	57.7	1	4	90	0.00	29.967 
12:40	78.5	78.5	79.5	49	57.7	3	9	90	0.00	29.967 
12:45	78.3	78.3	79.4	49	57.5	3	6	112	0.00	29.958 
12:50	78.3	78.3	79.5	51	58.7	3	6	90	0.00	29.958 
12:55	78.5	78.5	79.6	51	58.8	2	4	90	0.00	29.958 
13:00	78.8	78.8	79.7	48	57.4	2	5	68	0.00	29.957 
13:05	79.2	79.2	79.9	47	57.2	2	6	90	0.00	29.957 
13:10	79.4	79.4	80.1	48	58.0	1	4	90	0.00	29.957 
13:15	79.2	79.2	80.1	49	58.4	3	9	90	0.00	29.952 
13:20	79.2	79.2	79.9	47	57.2	2	6	135	0.00	29.952 
13:25	79.6	79.6	80.2	47	57.6	2	8	112	0.00	29.952 
13:30	79.2	79.2	80.0	48	57.8	3	7	112	0.00	29.947 
13:35	78.6	78.6	79.6	49	57.8	3	6	112	0.00	29.947 
13:40	78.6	78.6	79.5	48	57.2	2	7	90	0.00	29.947 
13:45	78.6	78.6	79.4	46	56.1	2	9	90	0.00	29.944 
13:50	79.2	79.2	79.8	46	56.6	2	5	112	0.00	29.944 
13:55	79.2	79.2	79.8	46	56.6	3	7	90	0.00	29.944 
14:00	79.2	79.2	79.8	46	56.6	2	5	90	0.00	29.939 
14:05	79.0	79.0	79.8	48	57.6	2	5	90	0.00	29.939 
14:10	78.6	78.6	79.5	47	56.7	3	6	90	0.00	29.939 
14:15	78.6	78.6	79.6	49	57.8	2	7	90	0.00	29.933 
14:20	78.3	78.3	79.2	46	55.8	2	5	112	0.00	29.933 
14:25	77.9	77.9	79.0	47	56.0	2	6	112	0.00	29.933 
14:30	77.4	77.4	78.8	48	56.1	2	5	90	0.00	29.933 
14:35	77.2	77.2	78.7	49	56.5	1	4	90	0.00	29.933 
14:40	77.0	77.0	78.6	49	56.4	1	5	112	0.00	29.933 
14:45	77.0	77.0	78.5	48	55.8	1	4	90	0.00	29.930 
14:50	76.8	76.8	78.4	48	55.6	2	5	90	0.00	29.930 
14:55	76.8	76.8	78.5	49	56.2	2	6	90	0.00	29.930 
15:00	76.8	76.8	78.5	49	56.2	2	4	112	0.00	29.929 
15:05	76.7	76.7	78.4	49	56.1	1	4	90	0.00	29.929 
15:10	76.7	76.7	78.4	50	56.6	1	3	90	0.00	29.929 
15:15	76.7	76.7	78.4	50	56.6	1	3	112	0.00	29.930 
15:20	76.5	76.5	78.3	50	56.5	1	4	158	0.00	29.930 
15:25	76.3	76.3	78.2	50	56.3	0	2	158	0.00	29.930 
15:30	76.1	76.1	78.1	50	56.1	1	3	135	0.00	29.929 
15:35	76.0	76.0	78.1	51	56.5	0	3	135	0.00	29.929 
15:40	75.8	75.8	78.0	52	56.9	1	3	112	0.00	29.929 
15:45	75.8	75.8	78.0	52	56.9	1	3	112	0.00	29.920 
15:50	75.8	75.8	78.0	53	57.4	0	2	112	0.00	29.920 
15:55	75.8	75.8	78.0	53	57.4	0	3	158	0.00	29.920 
16:00	76.0	76.0	78.1	53	57.6	0	1	158	0.00	29.926 
16:05	76.0	76.0	78.1	51	56.5	1	3	112	0.00	29.926 
16:10	76.1	76.1	78.1	51	56.6	1	4	135	0.00	29.926 
16:15	76.1	76.1	78.1	51	56.6	1	3	202	0.00	29.927 
16:20	76.3	76.3	78.2	51	56.8	2	7	90	0.00	29.927 
16:25	76.3	76.3	78.2	51	56.8	2	5	90	0.00	29.927 
16:30	76.3	76.3	78.2	51	56.8	1	3	90	0.00	29.928 
16:35	76.1	76.1	78.1	52	57.2	0	3	112	0.00	29.928 
16:40	76.1	76.1	78.1	52	57.2	1	3	135	0.00	29.928 
16:45	76.0	76.0	78.1	52	57.1	0	2	158	0.00	29.926 
16:50	76.0	76.0	78.1	53	57.6	0	2	158	0.00	29.926 
16:55	76.0	76.0	78.1	53	57.6	0	4	112	0.00	29.926 
17:00	75.8	75.8	78.0	53	57.4	0	1	112	0.00	29.924 
17:05	75.8	75.8	78.0	53	57.4	0	2	112	0.00	29.924 
17:10	75.6	75.6	77.9	54	57.8	1	3	112	0.00	29.924 
17:15	75.4	75.4	77.8	54	57.6	0	2	112	0.00	29.922 
17:20	75.4	75.4	77.7	55	58.1	0	2	112	0.00	29.922 
17:25	75.3	75.3	77.7	56	58.5	0	1	112	0.00	29.922 
17:30	75.1	75.1	77.6	56	58.3	0	1	112	0.00	29.926 
17:35	74.9	74.9	74.9	57	58.6	0	1	112	0.00	29.926 
17:40	74.7	74.7	74.7	59	59.4	0	1	112	0.00	29.926 
17:45	74.6	74.6	74.6	60	59.8	0	1	112	0.00	29.929 
17:50	74.2	74.2	74.2	62	60.3	0	1	112	0.00	29.929 
17:55	73.7	73.7	73.7	67	62.0	0	0	---	0.00	29.929 
18:00	72.8	72.8	72.8	66	60.8	0	0	---	0.00	29.927 
18:05	72.3	72.3	72.3	69	61.5	0	1	112	0.00	29.927 
18:10	71.6	71.6	71.6	71	61.7	0	0	---	0.00	29.927 
18:15	71.1	71.1	71.1	73	62.0	0	0	---	0.01	29.926 
18:20	70.8	70.8	70.8	74	62.1	0	0	---	0.00	29.926 
18:25	70.4	70.4	70.4	76	62.5	0	0	---	0.00	29.926 
18:30	70.3	70.3	70.3	78	63.1	0	0	---	0.00	29.925 
18:35	69.9	69.9	69.9	79	63.1	0	0	---	0.00	29.925 
18:40	69.8	69.8	69.8	81	63.7	0	0	---	0.00	29.925 
18:45	69.6	69.6	69.6	81	63.5	0	0	---	0.00	29.926 
18:50	69.4	69.4	69.4	82	63.7	0	0	---	0.00	29.926 
18:55	69.3	69.3	69.3	82	63.6	0	0	---	0.00	29.926 
19:00	69.1	69.1	69.1	83	63.7	0	0	---	0.00	29.919 
19:05	69.1	69.1	69.1	83	63.7	0	0	---	0.00	29.919 
19:10	68.9	68.9	68.9	83	63.5	0	0	---	0.00	29.919 
19:15	68.9	68.9	68.9	82	63.2	0	0	---	0.00	29.912 
19:20	68.8	68.8	68.8	83	63.4	0	0	---	0.00	29.912 
19:25	68.8	68.8	68.8	83	63.4	0	0	---	0.00	29.912 
19:30	68.9	68.9	68.9	83	63.5	0	0	---	0.00	29.905 
19:35	68.9	68.9	68.9	83	63.5	0	0	---	0.00	29.905 
19:40	68.9	68.9	68.9	83	63.5	0	0	---	0.00	29.905 
19:45	68.9	68.9	68.9	83	63.5	0	0	---	0.00	29.905 
19:50	68.9	68.9	68.9	83	63.5	0	0	---	0.00	29.905 
19:55	68.9	68.9	68.9	83	63.5	0	0	---	0.00	29.905 
20:00	69.1	69.1	69.1	83	63.7	0	1	112	0.00	29.898 
20:05	69.1	69.1	69.1	81	63.0	0	1	112	0.00	29.898 
20:10	69.3	69.3	69.3	81	63.2	0	1	112	0.00	29.898 
20:15	69.3	69.3	69.3	81	63.2	0	1	112	0.00	29.893 
20:20	69.4	69.4	69.4	81	63.3	0	1	112	0.00	29.893 
20:25	69.4	69.4	69.4	80	63.0	0	1	112	0.00	29.893 
20:30	69.4	69.4	69.4	80	63.0	0	1	112	0.00	29.894 
20:35	69.3	69.3	69.3	81	63.2	0	1	112	0.00	29.894 
20:40	69.3	69.3	69.3	81	63.2	0	1	112	0.00	29.894 
20:45	69.3	69.3	69.3	81	63.2	0	1	112	0.00	29.893 
20:50	69.3	69.3	69.3	81	63.2	0	1	112	0.00	29.893 
20:55	69.1	69.1	69.1	81	63.0	0	1	112	0.00	29.893 
21:00	69.1	69.1	69.1	80	62.7	0	2	112	0.00	29.892 
21:05	69.1	69.1	69.1	80	62.7	0	2	112	0.00	29.892 
21:10	69.1	69.1	69.1	80	62.7	0	1	112	0.00	29.892 
21:15	69.1	69.1	69.1	80	62.7	0	1	112	0.00	29.889 
21:20	69.1	69.1	69.1	80	62.7	0	2	112	0.00	29.889 
21:25	69.1	69.1	69.1	79	62.3	1	2	112	0.00	29.889 
21:30	69.1	69.1	69.1	79	62.3	1	3	112	0.00	29.881 
21:35	69.1	69.1	69.1	78	61.9	1	3	112	0.00	29.881 
21:40	69.1	69.1	69.1	78	61.9	1	4	90	0.00	29.881 
21:45	69.1	69.1	69.1	77	61.6	1	4	112	0.00	29.877 
21:50	69.1	69.1	69.1	77	61.6	1	4	90	0.00	29.877 
21:55	69.1	69.1	69.1	77	61.6	0	2	90	0.00	29.877 
22:00	69.1	69.1	69.1	78	61.9	1	4	90	0.00	29.885 
22:05	68.9	68.9	68.9	78	61.7	0	1	90	0.00	29.885 
22:10	68.9	68.9	68.9	78	61.7	0	1	90	0.00	29.885 
22:15	68.9	68.9	68.9	79	62.1	0	1	90	0.01	29.885 
22:20	68.8	68.8	68.8	81	62.7	0	0	---	0.00	29.885 
22:25	68.4	68.4	68.4	82	62.7	0	0	---	0.00	29.885 
22:30	67.9	67.9	67.9	83	62.5	0	0	---	0.00	29.887 
22:35	67.6	67.6	67.6	84	62.6	0	0	---	0.00	29.887 
22:40	67.3	67.3	67.3	85	62.6	0	0	---	0.00	29.887 
22:45	66.9	66.9	66.9	86	62.6	0	0	---	0.00	29.888 
22:50	66.8	66.8	66.8	86	62.5	0	0	---	0.00	29.888 
22:55	66.6	66.6	66.6	87	62.6	0	0	---	0.00	29.888 
23:00	66.4	66.4	66.4	87	62.4	0	0	---	0.00	29.889 
23:05	66.3	66.3	66.3	88	62.6	0	0	---	0.00	29.889 
23:10	66.3	66.3	66.3	88	62.6	0	0	---	0.00	29.889 
23:15	66.3	66.3	66.3	88	62.6	0	0	---	0.00	29.882 
23:20	66.3	66.3	66.3	88	62.6	0	0	---	0.00	29.882 
23:25	66.3	66.3	66.3	88	62.6	0	0	---	0.00	29.882 
23:30	66.3	66.3	66.3	88	62.6	0	0	---	0.00	29.876 
23:35	66.3	66.3	66.3	88	62.6	0	1	90	0.00	29.876 
23:40	66.3	66.3	66.3	88	62.6	0	0	---	0.00	29.876 
23:45	66.3	66.3	66.3	88	62.6	0	0	---	0.00	29.874 
23:50	66.3	66.3	66.3	88	62.6	0	0	---	0.00	29.874 
23:55	66.1	66.1	66.1	88	62.4	0	0	---	0.00	29.874 

CoCoRaHS
IN-AL-39
A2 Web Hosting
Creative Commons License
GoDaddy
search engine by freefind advanced

loaded 2018-11-17 05:37:51 • last modified 2010-11-18 10:43:29
Privacy PolicyDisclaimer
• wx.awcolley.com is powered by PmWiki v.2002016 •
• all content (unless otherwise noted) © 2018 A W Colley